sensor_id;sensor_type;location;lat;lon;timestamp;pressure;altitude;pressure_sealevel;temperature;humidity
24160;BME280;62385;41.594;23.808;2023-03-23T00:01:54;95370.84;;;5.74;69.09
24160;BME280;62385;41.594;23.808;2023-03-23T00:04:19;95369.28;;;5.91;69.44
24160;BME280;62385;41.594;23.808;2023-03-23T00:06:46;95364.84;;;5.91;69.40
24160;BME280;62385;41.594;23.808;2023-03-23T00:09:15;95361.88;;;5.67;70.66
24160;BME280;62385;41.594;23.808;2023-03-23T00:11:42;95361.25;;;5.83;69.73
24160;BME280;62385;41.594;23.808;2023-03-23T00:14:09;95355.38;;;5.98;69.22
24160;BME280;62385;41.594;23.808;2023-03-23T00:16:39;95363.00;;;6.01;69.45
24160;BME280;62385;41.594;23.808;2023-03-23T00:19:13;95359.59;;;5.82;70.32
24160;BME280;62385;41.594;23.808;2023-03-23T00:21:42;95357.16;;;6.08;68.80
24160;BME280;62385;41.594;23.808;2023-03-23T00:24:12;95358.31;;;5.86;69.50
24160;BME280;62385;41.594;23.808;2023-03-23T00:26:40;95362.34;;;6.17;68.66
24160;BME280;62385;41.594;23.808;2023-03-23T00:29:08;95345.03;;;6.15;68.36
24160;BME280;62385;41.594;23.808;2023-03-23T00:31:38;95353.25;;;6.12;68.15
24160;BME280;62385;41.594;23.808;2023-03-23T00:34:04;95357.59;;;6.03;68.50
24160;BME280;62385;41.594;23.808;2023-03-23T00:36:31;95363.91;;;5.73;69.94
24160;BME280;62385;41.594;23.808;2023-03-23T00:38:58;95362.13;;;5.74;69.49
24160;BME280;62385;41.594;23.808;2023-03-23T00:41:26;95356.47;;;5.59;70.05
24160;BME280;62385;41.594;23.808;2023-03-23T00:43:54;95368.25;;;5.55;70.66
24160;BME280;62385;41.594;23.808;2023-03-23T00:46:20;95359.59;;;5.35;71.45
24160;BME280;62385;41.594;23.808;2023-03-23T00:48:46;95359.09;;;5.59;70.29
24160;BME280;62385;41.594;23.808;2023-03-23T00:51:12;95365.28;;;5.77;69.95
24160;BME280;62385;41.594;23.808;2023-03-23T00:53:39;95357.38;;;5.87;69.83
24160;BME280;62385;41.594;23.808;2023-03-23T00:56:07;95359.13;;;6.23;69.91
24160;BME280;62385;41.594;23.808;2023-03-23T00:58:33;95347.88;;;6.03;69.68
24160;BME280;62385;41.594;23.808;2023-03-23T01:00:58;95347.72;;;6.05;68.84
24160;BME280;62385;41.594;23.808;2023-03-23T01:03:24;95354.25;;;6.01;69.72
24160;BME280;62385;41.594;23.808;2023-03-23T01:05:52;95351.28;;;5.77;69.62
24160;BME280;62385;41.594;23.808;2023-03-23T01:08:19;95345.25;;;5.67;70.11
24160;BME280;62385;41.594;23.808;2023-03-23T01:10:45;95352.13;;;5.68;70.77
24160;BME280;62385;41.594;23.808;2023-03-23T01:13:12;95347.09;;;5.93;70.22
24160;BME280;62385;41.594;23.808;2023-03-23T01:15:38;95350.97;;;6.44;67.71
24160;BME280;62385;41.594;23.808;2023-03-23T01:18:04;95350.06;;;6.08;68.39
24160;BME280;62385;41.594;23.808;2023-03-23T01:20:30;95358.25;;;6.05;68.57
24160;BME280;62385;41.594;23.808;2023-03-23T01:23:00;95359.53;;;6.01;67.89
24160;BME280;62385;41.594;23.808;2023-03-23T01:25:28;95353.06;;;5.95;68.08
24160;BME280;62385;41.594;23.808;2023-03-23T01:27:54;95355.50;;;5.60;69.78
24160;BME280;62385;41.594;23.808;2023-03-23T01:30:21;95355.78;;;5.67;68.83
24160;BME280;62385;41.594;23.808;2023-03-23T01:32:46;95346.94;;;5.58;69.29
24160;BME280;62385;41.594;23.808;2023-03-23T01:35:13;95355.25;;;5.63;69.32
24160;BME280;62385;41.594;23.808;2023-03-23T01:37:39;95358.59;;;5.46;69.97
24160;BME280;62385;41.594;23.808;2023-03-23T01:40:06;95360.22;;;5.56;69.02
24160;BME280;62385;41.594;23.808;2023-03-23T01:42:34;95359.25;;;5.57;69.46
24160;BME280;62385;41.594;23.808;2023-03-23T01:48:25;95362.50;;;5.42;69.34
24160;BME280;62385;41.594;23.808;2023-03-23T01:50:57;95360.94;;;5.49;69.59
24160;BME280;62385;41.594;23.808;2023-03-23T01:53:28;95354.50;;;5.34;69.42
24160;BME280;62385;41.594;23.808;2023-03-23T01:55:56;95367.91;;;5.40;69.17
24160;BME280;62385;41.594;23.808;2023-03-23T01:58:26;95364.50;;;4.92;70.56
24160;BME280;62385;41.594;23.808;2023-03-23T02:00:58;95358.69;;;4.69;70.95
24160;BME280;62385;41.594;23.808;2023-03-23T02:03:28;95365.47;;;4.91;70.67
24160;BME280;62385;41.594;23.808;2023-03-23T02:05:58;95367.81;;;4.65;71.38
24160;BME280;62385;41.594;23.808;2023-03-23T02:08:34;95365.88;;;4.48;71.84
24160;BME280;62385;41.594;23.808;2023-03-23T02:11:01;95362.28;;;4.68;71.85
24160;BME280;62385;41.594;23.808;2023-03-23T02:13:28;95362.16;;;4.50;72.38
24160;BME280;62385;41.594;23.808;2023-03-23T02:18:41;95373.34;;;5.10;71.04
24160;BME280;62385;41.594;23.808;2023-03-23T02:34:31;95378.91;;;4.78;71.47
24160;BME280;62385;41.594;23.808;2023-03-23T02:37:30;95379.44;;;4.82;71.73
24160;BME280;62385;41.594;23.808;2023-03-23T02:40:04;95379.75;;;4.79;70.44
24160;BME280;62385;41.594;23.808;2023-03-23T02:42:38;95372.66;;;4.70;70.71
24160;BME280;62385;41.594;23.808;2023-03-23T02:45:08;95377.66;;;4.73;70.74
24160;BME280;62385;41.594;23.808;2023-03-23T02:47:38;95379.75;;;4.79;70.28
24160;BME280;62385;41.594;23.808;2023-03-23T02:50:06;95383.63;;;4.75;70.89
24160;BME280;62385;41.594;23.808;2023-03-23T02:52:34;95381.88;;;4.35;71.75
24160;BME280;62385;41.594;23.808;2023-03-23T02:55:02;95393.53;;;4.42;72.52
24160;BME280;62385;41.594;23.808;2023-03-23T02:57:30;95396.28;;;4.41;72.70
24160;BME280;62385;41.594;23.808;2023-03-23T02:59:58;95388.03;;;4.64;71.97
24160;BME280;62385;41.594;23.808;2023-03-23T03:02:29;95383.72;;;4.44;73.97
24160;BME280;62385;41.594;23.808;2023-03-23T03:05:06;95385.28;;;4.76;71.82
24160;BME280;62385;41.594;23.808;2023-03-23T03:10:40;95387.78;;;4.68;71.90
24160;BME280;62385;41.594;23.808;2023-03-23T03:21:21;95392.88;;;4.98;71.20
24160;BME280;62385;41.594;23.808;2023-03-23T03:23:55;95377.75;;;5.19;71.18
24160;BME280;62385;41.594;23.808;2023-03-23T03:26:26;95388.13;;;5.30;69.73
24160;BME280;62385;41.594;23.808;2023-03-23T03:28:57;95392.97;;;5.35;70.29
24160;BME280;62385;41.594;23.808;2023-03-23T03:31:30;95392.19;;;5.25;70.52
24160;BME280;62385;41.594;23.808;2023-03-23T03:33:58;95397.59;;;4.94;71.07
24160;BME280;62385;41.594;23.808;2023-03-23T03:36:28;95388.06;;;4.84;71.29
24160;BME280;62385;41.594;23.808;2023-03-23T03:39:18;95399.53;;;4.92;71.41
24160;BME280;62385;41.594;23.808;2023-03-23T03:41:46;95400.34;;;4.93;70.11
24160;BME280;62385;41.594;23.808;2023-03-23T03:44:11;95394.41;;;4.72;70.76
24160;BME280;62385;41.594;23.808;2023-03-23T03:46:38;95391.41;;;4.27;71.29
24160;BME280;62385;41.594;23.808;2023-03-23T03:49:06;95389.94;;;4.53;71.09
24160;BME280;62385;41.594;23.808;2023-03-23T03:51:35;95396.31;;;4.50;70.40
24160;BME280;62385;41.594;23.808;2023-03-23T03:54:02;95398.09;;;4.40;70.30
24160;BME280;62385;41.594;23.808;2023-03-23T03:56:28;95399.19;;;4.28;70.99
24160;BME280;62385;41.594;23.808;2023-03-23T03:59:09;95393.25;;;4.36;71.90
24160;BME280;62385;41.594;23.808;2023-03-23T04:01:49;95402.00;;;4.55;70.62
24160;BME280;62385;41.594;23.808;2023-03-23T04:04:21;95403.78;;;4.45;70.42
24160;BME280;62385;41.594;23.808;2023-03-23T04:06:47;95393.56;;;4.61;69.77
24160;BME280;62385;41.594;23.808;2023-03-23T04:09:15;95402.50;;;4.30;70.61
24160;BME280;62385;41.594;23.808;2023-03-23T04:11:41;95398.41;;;3.97;71.04
24160;BME280;62385;41.594;23.808;2023-03-23T04:14:44;95390.78;;;3.94;71.14
24160;BME280;62385;41.594;23.808;2023-03-23T04:17:10;95394.47;;;3.82;72.42
24160;BME280;62385;41.594;23.808;2023-03-23T04:19:37;95399.75;;;3.92;71.74
24160;BME280;62385;41.594;23.808;2023-03-23T04:22:04;95398.38;;;3.88;72.71
24160;BME280;62385;41.594;23.808;2023-03-23T04:24:32;95397.31;;;4.00;71.75
24160;BME280;62385;41.594;23.808;2023-03-23T04:27:00;95404.56;;;3.56;72.90
24160;BME280;62385;41.594;23.808;2023-03-23T04:29:27;95400.66;;;3.71;72.90
24160;BME280;62385;41.594;23.808;2023-03-23T04:32:11;95406.16;;;3.68;73.04
24160;BME280;62385;41.594;23.808;2023-03-23T04:34:43;95406.84;;;3.70;72.91
24160;BME280;62385;41.594;23.808;2023-03-23T04:37:10;95412.31;;;3.88;72.02
24160;BME280;62385;41.594;23.808;2023-03-23T04:39:36;95412.44;;;3.87;71.80
24160;BME280;62385;41.594;23.808;2023-03-23T04:42:03;95417.28;;;3.61;72.29
24160;BME280;62385;41.594;23.808;2023-03-23T04:44:56;95411.19;;;3.30;73.85
24160;BME280;62385;41.594;23.808;2023-03-23T04:47:27;95416.53;;;3.49;74.33
24160;BME280;62385;41.594;23.808;2023-03-23T04:49:58;95422.38;;;3.83;72.79
24160;BME280;62385;41.594;23.808;2023-03-23T04:52:30;95419.75;;;4.23;71.76
24160;BME280;62385;41.594;23.808;2023-03-23T04:54:58;95418.91;;;4.13;72.80
24160;BME280;62385;41.594;23.808;2023-03-23T04:57:25;95408.94;;;4.07;72.73
24160;BME280;62385;41.594;23.808;2023-03-23T05:00:12;95421.47;;;4.43;72.41
24160;BME280;62385;41.594;23.808;2023-03-23T05:02:44;95417.66;;;4.86;70.63
24160;BME280;62385;41.594;23.808;2023-03-23T05:05:13;95421.53;;;5.10;70.36
24160;BME280;62385;41.594;23.808;2023-03-23T05:07:41;95422.22;;;5.41;70.30
24160;BME280;62385;41.594;23.808;2023-03-23T05:10:08;95425.63;;;5.61;69.57
24160;BME280;62385;41.594;23.808;2023-03-23T05:12:36;95425.59;;;5.90;68.50
24160;BME280;62385;41.594;23.808;2023-03-23T05:15:06;95433.50;;;5.90;68.57
24160;BME280;62385;41.594;23.808;2023-03-23T05:17:33;95431.97;;;5.87;68.46
24160;BME280;62385;41.594;23.808;2023-03-23T05:20:04;95431.47;;;6.11;67.42
24160;BME280;62385;41.594;23.808;2023-03-23T05:22:42;95452.34;;;5.95;68.52
24160;BME280;62385;41.594;23.808;2023-03-23T05:25:10;95450.81;;;5.73;68.94
24160;BME280;62385;41.594;23.808;2023-03-23T05:27:39;95440.66;;;5.97;68.51
24160;BME280;62385;41.594;23.808;2023-03-23T05:30:21;95441.41;;;6.17;67.38
24160;BME280;62385;41.594;23.808;2023-03-23T05:32:48;95442.53;;;6.24;67.70
24160;BME280;62385;41.594;23.808;2023-03-23T05:35:28;95431.97;;;6.24;67.81
24160;BME280;62385;41.594;23.808;2023-03-23T05:37:55;95439.63;;;6.18;68.39
24160;BME280;62385;41.594;23.808;2023-03-23T05:40:22;95443.16;;;6.36;68.01
24160;BME280;62385;41.594;23.808;2023-03-23T05:42:58;95442.06;;;6.56;67.30
24160;BME280;62385;41.594;23.808;2023-03-23T05:45:41;95437.19;;;6.61;67.62
24160;BME280;62385;41.594;23.808;2023-03-23T05:48:06;95439.66;;;6.63;67.22
24160;BME280;62385;41.594;23.808;2023-03-23T05:50:32;95440.66;;;7.24;66.44
24160;BME280;62385;41.594;23.808;2023-03-23T05:53:00;95444.03;;;6.99;66.88
24160;BME280;62385;41.594;23.808;2023-03-23T05:55:27;95439.22;;;7.12;66.52
24160;BME280;62385;41.594;23.808;2023-03-23T05:58:05;95447.50;;;7.17;66.36
24160;BME280;62385;41.594;23.808;2023-03-23T06:00:35;95457.50;;;6.96;67.49
24160;BME280;62385;41.594;23.808;2023-03-23T06:03:12;95464.03;;;7.37;66.72
24160;BME280;62385;41.594;23.808;2023-03-23T06:06:00;95456.38;;;7.52;67.19
24160;BME280;62385;41.594;23.808;2023-03-23T06:08:41;95462.44;;;7.26;67.20
24160;BME280;62385;41.594;23.808;2023-03-23T06:11:07;95460.03;;;7.76;66.60
24160;BME280;62385;41.594;23.808;2023-03-23T06:13:40;95465.69;;;7.03;67.90
24160;BME280;62385;41.594;23.808;2023-03-23T06:16:08;95463.25;;;7.09;68.26
24160;BME280;62385;41.594;23.808;2023-03-23T06:18:49;95464.13;;;7.71;66.60
24160;BME280;62385;41.594;23.808;2023-03-23T06:21:24;95462.75;;;8.10;64.74
24160;BME280;62385;41.594;23.808;2023-03-23T06:23:58;95462.94;;;7.91;66.03
24160;BME280;62385;41.594;23.808;2023-03-23T06:26:34;95458.72;;;7.98;66.64
24160;BME280;62385;41.594;23.808;2023-03-23T06:29:05;95464.25;;;8.39;65.64
24160;BME280;62385;41.594;23.808;2023-03-23T06:31:43;95461.19;;;8.51;65.02
24160;BME280;62385;41.594;23.808;2023-03-23T06:34:10;95460.19;;;8.52;65.16
24160;BME280;62385;41.594;23.808;2023-03-23T06:36:59;95462.00;;;8.52;65.17
24160;BME280;62385;41.594;23.808;2023-03-23T06:39:41;95466.06;;;8.38;66.04
24160;BME280;62385;41.594;23.808;2023-03-23T06:42:23;95478.03;;;8.50;65.63
24160;BME280;62385;41.594;23.808;2023-03-23T06:45:11;95464.41;;;8.79;65.17
24160;BME280;62385;41.594;23.808;2023-03-23T06:47:37;95468.44;;;8.91;65.07
24160;BME280;62385;41.594;23.808;2023-03-23T06:50:04;95474.72;;;8.90;65.00
24160;BME280;62385;41.594;23.808;2023-03-23T06:52:31;95474.09;;;9.04;64.94
24160;BME280;62385;41.594;23.808;2023-03-23T06:54:57;95474.78;;;9.14;63.87
24160;BME280;62385;41.594;23.808;2023-03-23T06:57:22;95471.13;;;9.15;65.47
24160;BME280;62385;41.594;23.808;2023-03-23T06:59:50;95466.16;;;9.04;64.53
24160;BME280;62385;41.594;23.808;2023-03-23T07:02:16;95458.22;;;9.12;62.63
24160;BME280;62385;41.594;23.808;2023-03-23T07:04:44;95465.91;;;9.72;61.60
24160;BME280;62385;41.594;23.808;2023-03-23T07:07:20;95467.72;;;9.96;60.99
24160;BME280;62385;41.594;23.808;2023-03-23T07:09:56;95469.53;;;10.19;61.58
24160;BME280;62385;41.594;23.808;2023-03-23T07:12:24;95470.69;;;10.01;62.06
24160;BME280;62385;41.594;23.808;2023-03-23T07:14:50;95456.28;;;9.87;61.52
24160;BME280;62385;41.594;23.808;2023-03-23T07:17:16;95464.53;;;10.25;60.43
24160;BME280;62385;41.594;23.808;2023-03-23T07:19:59;95461.91;;;9.92;59.40
24160;BME280;62385;41.594;23.808;2023-03-23T07:22:25;95447.69;;;10.56;58.26
24160;BME280;62385;41.594;23.808;2023-03-23T07:24:58;95462.03;;;10.39;58.72
24160;BME280;62385;41.594;23.808;2023-03-23T07:27:30;95444.69;;;10.68;57.93
24160;BME280;62385;41.594;23.808;2023-03-23T07:29:59;95453.44;;;10.76;58.65
24160;BME280;62385;41.594;23.808;2023-03-23T07:32:25;95451.28;;;10.25;58.61
24160;BME280;62385;41.594;23.808;2023-03-23T07:34:52;95462.06;;;10.78;58.98
24160;BME280;62385;41.594;23.808;2023-03-23T07:37:32;95456.66;;;10.94;57.35
24160;BME280;62385;41.594;23.808;2023-03-23T07:39:58;95449.84;;;11.23;56.58
24160;BME280;62385;41.594;23.808;2023-03-23T07:42:24;95452.97;;;11.57;55.05
24160;BME280;62385;41.594;23.808;2023-03-23T07:44:57;95455.69;;;11.18;57.84
24160;BME280;62385;41.594;23.808;2023-03-23T07:47:23;95448.59;;;11.10;58.00
24160;BME280;62385;41.594;23.808;2023-03-23T07:49:48;95439.19;;;11.53;55.65
24160;BME280;62385;41.594;23.808;2023-03-23T07:52:21;95434.13;;;11.67;54.17
24160;BME280;62385;41.594;23.808;2023-03-23T07:54:47;95432.66;;;11.10;55.98
24160;BME280;62385;41.594;23.808;2023-03-23T07:57:27;95439.81;;;11.10;56.36
24160;BME280;62385;41.594;23.808;2023-03-23T07:59:55;95439.94;;;11.39;56.28
24160;BME280;62385;41.594;23.808;2023-03-23T08:02:22;95433.63;;;11.86;54.67
24160;BME280;62385;41.594;23.808;2023-03-23T08:05:15;95436.09;;;11.65;55.81
24160;BME280;62385;41.594;23.808;2023-03-23T08:08:10;95433.19;;;11.82;54.93
24160;BME280;62385;41.594;23.808;2023-03-23T08:10:54;95433.47;;;11.87;53.64
24160;BME280;62385;41.594;23.808;2023-03-23T08:13:38;95427.69;;;11.84;53.71
24160;BME280;62385;41.594;23.808;2023-03-23T08:16:13;95434.91;;;12.13;53.45
24160;BME280;62385;41.594;23.808;2023-03-23T08:18:59;95431.66;;;12.02;54.14
24160;BME280;62385;41.594;23.808;2023-03-23T08:21:45;95421.13;;;12.38;54.20
24160;BME280;62385;41.594;23.808;2023-03-23T08:24:20;95421.66;;;12.63;53.83
24160;BME280;62385;41.594;23.808;2023-03-23T08:26:51;95421.94;;;12.68;53.27
24160;BME280;62385;41.594;23.808;2023-03-23T08:29:23;95426.00;;;12.79;53.47
24160;BME280;62385;41.594;23.808;2023-03-23T08:32:14;95417.81;;;12.80;52.70
24160;BME280;62385;41.594;23.808;2023-03-23T08:34:40;95409.34;;;12.91;52.31
24160;BME280;62385;41.594;23.808;2023-03-23T08:37:26;95417.19;;;13.29;53.23
24160;BME280;62385;41.594;23.808;2023-03-23T08:39:53;95415.09;;;13.10;52.72
24160;BME280;62385;41.594;23.808;2023-03-23T08:42:39;95411.59;;;13.24;52.90
24160;BME280;62385;41.594;23.808;2023-03-23T08:45:18;95409.13;;;13.08;52.29
24160;BME280;62385;41.594;23.808;2023-03-23T08:48:02;95412.22;;;13.47;52.59
24160;BME280;62385;41.594;23.808;2023-03-23T08:50:51;95411.59;;;13.24;51.97
24160;BME280;62385;41.594;23.808;2023-03-23T08:53:35;95408.41;;;13.35;51.09
24160;BME280;62385;41.594;23.808;2023-03-23T08:56:35;95394.84;;;13.51;50.80
24160;BME280;62385;41.594;23.808;2023-03-23T08:59:24;95399.69;;;13.41;51.03
24160;BME280;62385;41.594;23.808;2023-03-23T09:02:10;95399.03;;;13.60;50.52
24160;BME280;62385;41.594;23.808;2023-03-23T09:04:51;95395.75;;;14.14;49.72
24160;BME280;62385;41.594;23.808;2023-03-23T09:07:30;95394.22;;;13.98;50.90
24160;BME280;62385;41.594;23.808;2023-03-23T09:09:57;95390.25;;;14.43;48.04
24160;BME280;62385;41.594;23.808;2023-03-23T09:12:23;95388.66;;;14.55;47.45
24160;BME280;62385;41.594;23.808;2023-03-23T09:14:49;95381.50;;;14.28;48.44
24160;BME280;62385;41.594;23.808;2023-03-23T09:17:14;95379.78;;;14.48;49.09
24160;BME280;62385;41.594;23.808;2023-03-23T09:19:41;95379.28;;;14.72;47.78
24160;BME280;62385;41.594;23.808;2023-03-23T09:22:07;95381.59;;;14.41;47.72
24160;BME280;62385;41.594;23.808;2023-03-23T09:24:33;95370.13;;;14.47;46.90
24160;BME280;62385;41.594;23.808;2023-03-23T09:26:59;95373.13;;;14.78;45.81
24160;BME280;62385;41.594;23.808;2023-03-23T09:29:26;95375.06;;;14.50;45.67
24160;BME280;62385;41.594;23.808;2023-03-23T09:31:55;95368.91;;;14.22;46.26
24160;BME280;62385;41.594;23.808;2023-03-23T09:34:22;95360.47;;;14.18;45.85
24160;BME280;62385;41.594;23.808;2023-03-23T09:36:48;95360.72;;;13.96;45.33
24160;BME280;62385;41.594;23.808;2023-03-23T09:39:15;95352.97;;;14.69;44.42
24160;BME280;62385;41.594;23.808;2023-03-23T09:49:54;95341.28;;;15.57;41.95
24160;BME280;62385;41.594;23.808;2023-03-23T09:52:22;95336.84;;;15.04;41.93
24160;BME280;62385;41.594;23.808;2023-03-23T09:54:54;95333.31;;;14.97;42.30
24160;BME280;62385;41.594;23.808;2023-03-23T09:57:38;95331.34;;;15.25;42.79
24160;BME280;62385;41.594;23.808;2023-03-23T10:00:13;95336.94;;;15.50;42.28
24160;BME280;62385;41.594;23.808;2023-03-23T10:02:52;95331.22;;;15.86;43.24
24160;BME280;62385;41.594;23.808;2023-03-23T10:05:31;95329.66;;;16.36;41.60
24160;BME280;62385;41.594;23.808;2023-03-23T10:08:08;95332.78;;;15.28;43.18
24160;BME280;62385;41.594;23.808;2023-03-23T10:16:12;95315.06;;;15.07;41.46
24160;BME280;62385;41.594;23.808;2023-03-23T10:19:11;95311.44;;;15.54;40.74
24160;BME280;62385;41.594;23.808;2023-03-23T10:21:42;95320.88;;;15.43;41.19
24160;BME280;62385;41.594;23.808;2023-03-23T10:24:15;95308.94;;;16.05;39.77
24160;BME280;62385;41.594;23.808;2023-03-23T10:29:47;95305.41;;;16.17;41.56
24160;BME280;62385;41.594;23.808;2023-03-23T10:32:19;95294.78;;;16.69;40.41
24160;BME280;62385;41.594;23.808;2023-03-23T10:35:07;95298.22;;;16.05;42.77
24160;BME280;62385;41.594;23.808;2023-03-23T10:37:42;95290.47;;;16.54;39.56
24160;BME280;62385;41.594;23.808;2023-03-23T10:40:25;95294.66;;;16.24;38.77
24160;BME280;62385;41.594;23.808;2023-03-23T10:42:53;95276.22;;;16.60;38.67
24160;BME280;62385;41.594;23.808;2023-03-23T10:45:28;95281.16;;;15.34;40.96
24160;BME280;62385;41.594;23.808;2023-03-23T10:48:06;95269.53;;;16.25;40.31
24160;BME280;62385;41.594;23.808;2023-03-23T10:50:35;95272.94;;;15.48;39.29
24160;BME280;62385;41.594;23.808;2023-03-23T10:53:11;95259.44;;;16.78;38.32
24160;BME280;62385;41.594;23.808;2023-03-23T10:55:39;95264.00;;;17.09;38.58
24160;BME280;62385;41.594;23.808;2023-03-23T10:58:09;95254.88;;;17.17;37.85
24160;BME280;62385;41.594;23.808;2023-03-23T11:00:42;95250.84;;;17.32;38.52
24160;BME280;62385;41.594;23.808;2023-03-23T11:05:42;95254.66;;;16.36;37.93
24160;BME280;62385;41.594;23.808;2023-03-23T11:08:14;95248.53;;;16.15;39.27
24160;BME280;62385;41.594;23.808;2023-03-23T11:10:47;95249.22;;;16.62;37.83
24160;BME280;62385;41.594;23.808;2023-03-23T11:13:15;95244.59;;;16.25;37.91
24160;BME280;62385;41.594;23.808;2023-03-23T11:15:43;95248.34;;;16.17;39.05
24160;BME280;62385;41.594;23.808;2023-03-23T11:18:35;95248.66;;;16.91;36.36
24160;BME280;62385;41.594;23.808;2023-03-23T11:21:02;95241.56;;;18.03;36.38
24160;BME280;62385;41.594;23.808;2023-03-23T11:23:34;95229.72;;;18.47;35.29
24160;BME280;62385;41.594;23.808;2023-03-23T11:28:58;95231.06;;;18.01;37.72
24160;BME280;62385;41.594;23.808;2023-03-23T11:31:36;95227.59;;;18.30;36.63
24160;BME280;62385;41.594;23.808;2023-03-23T11:34:05;95224.38;;;17.85;35.97
24160;BME280;62385;41.594;23.808;2023-03-23T11:36:40;95213.69;;;18.22;34.63
24160;BME280;62385;41.594;23.808;2023-03-23T11:41:44;95209.91;;;18.23;34.33
24160;BME280;62385;41.594;23.808;2023-03-23T11:44:11;95206.59;;;18.09;33.80
24160;BME280;62385;41.594;23.808;2023-03-23T11:46:46;95208.56;;;18.50;33.21
24160;BME280;62385;41.594;23.808;2023-03-23T11:52:01;95211.63;;;17.56;34.80
24160;BME280;62385;41.594;23.808;2023-03-23T11:54:43;95208.09;;;17.62;34.46
24160;BME280;62385;41.594;23.808;2023-03-23T11:57:13;95205.84;;;19.40;33.40
24160;BME280;62385;41.594;23.808;2023-03-23T11:59:39;95198.22;;;19.25;32.81
24160;BME280;62385;41.594;23.808;2023-03-23T12:05:18;95187.84;;;19.98;31.83
24160;BME280;62385;41.594;23.808;2023-03-23T12:07:53;95189.84;;;19.68;32.97
24160;BME280;62385;41.594;23.808;2023-03-23T12:11:07;95195.59;;;19.83;31.26
24160;BME280;62385;41.594;23.808;2023-03-23T12:35:09;95166.72;;;20.18;32.35
24160;BME280;62385;41.594;23.808;2023-03-23T12:42:58;95171.81;;;19.92;32.26
24160;BME280;62385;41.594;23.808;2023-03-23T12:48:03;95167.59;;;19.61;31.57
24160;BME280;62385;41.594;23.808;2023-03-23T12:50:41;95167.00;;;19.59;32.71
24160;BME280;62385;41.594;23.808;2023-03-23T12:58:44;95156.28;;;20.34;31.42
24160;BME280;62385;41.594;23.808;2023-03-23T13:01:37;95156.16;;;20.68;30.99
24160;BME280;62385;41.594;23.808;2023-03-23T13:04:14;95162.91;;;19.91;30.49
24160;BME280;62385;41.594;23.808;2023-03-23T13:06:44;95153.72;;;20.15;29.14
24160;BME280;62385;41.594;23.808;2023-03-23T13:09:22;95150.16;;;20.26;31.34
24160;BME280;62385;41.594;23.808;2023-03-23T13:11:51;95146.16;;;19.89;32.19
24160;BME280;62385;41.594;23.808;2023-03-23T13:25:56;95137.28;;;20.40;31.72
24160;BME280;62385;41.594;23.808;2023-03-23T13:28:30;95138.81;;;20.64;30.11
24160;BME280;62385;41.594;23.808;2023-03-23T13:33:32;95130.75;;;20.81;29.88
24160;BME280;62385;41.594;23.808;2023-03-23T13:36:05;95129.72;;;20.99;28.32
24160;BME280;62385;41.594;23.808;2023-03-23T13:38:34;95131.78;;;21.42;28.68
24160;BME280;62385;41.594;23.808;2023-03-23T13:41:09;95122.72;;;21.14;29.20
24160;BME280;62385;41.594;23.808;2023-03-23T13:44:18;95119.69;;;21.61;26.95
24160;BME280;62385;41.594;23.808;2023-03-23T13:46:54;95124.28;;;21.44;28.05
24160;BME280;62385;41.594;23.808;2023-03-23T13:49:22;95123.28;;;21.88;29.41
24160;BME280;62385;41.594;23.808;2023-03-23T13:54:31;95118.75;;;21.05;30.55
24160;BME280;62385;41.594;23.808;2023-03-23T13:59:57;95125.44;;;20.69;30.07
24160;BME280;62385;41.594;23.808;2023-03-23T14:02:40;95122.97;;;22.01;28.12
24160;BME280;62385;41.594;23.808;2023-03-23T14:10:56;95144.63;;;19.35;35.59
24160;BME280;62385;41.594;23.808;2023-03-23T14:16:27;95138.56;;;20.26;34.31
24160;BME280;62385;41.594;23.808;2023-03-23T14:18:58;95132.88;;;21.24;33.71
24160;BME280;62385;41.594;23.808;2023-03-23T14:21:41;95133.97;;;20.66;34.77
24160;BME280;62385;41.594;23.808;2023-03-23T14:24:15;95136.59;;;20.61;34.39
24160;BME280;62385;41.594;23.808;2023-03-23T14:26:41;95133.41;;;20.64;33.43
24160;BME280;62385;41.594;23.808;2023-03-23T14:29:11;95143.06;;;20.09;34.32
24160;BME280;62385;41.594;23.808;2023-03-23T14:31:38;95154.50;;;19.88;35.29
24160;BME280;62385;41.594;23.808;2023-03-23T14:34:14;95149.72;;;20.18;36.12
24160;BME280;62385;41.594;23.808;2023-03-23T14:36:41;95154.34;;;19.94;36.61
24160;BME280;62385;41.594;23.808;2023-03-23T14:41:37;95157.50;;;19.21;37.80
24160;BME280;62385;41.594;23.808;2023-03-23T14:44:06;95170.47;;;19.24;37.87
24160;BME280;62385;41.594;23.808;2023-03-23T14:46:34;95171.25;;;17.69;42.27
24160;BME280;62385;41.594;23.808;2023-03-23T14:49:04;95173.84;;;17.58;42.98
24160;BME280;62385;41.594;23.808;2023-03-23T14:51:31;95171.50;;;17.86;42.61
24160;BME280;62385;41.594;23.808;2023-03-23T14:53:59;95165.03;;;17.50;43.58
24160;BME280;62385;41.594;23.808;2023-03-23T14:56:33;95160.59;;;17.38;43.83
24160;BME280;62385;41.594;23.808;2023-03-23T14:59:05;95173.09;;;17.26;43.79
24160;BME280;62385;41.594;23.808;2023-03-23T15:01:36;95167.63;;;17.14;44.51
24160;BME280;62385;41.594;23.808;2023-03-23T15:04:11;95163.69;;;17.17;44.77
24160;BME280;62385;41.594;23.808;2023-03-23T15:06:43;95165.88;;;17.01;45.08
24160;BME280;62385;41.594;23.808;2023-03-23T15:09:14;95169.34;;;17.02;45.28
24160;BME280;62385;41.594;23.808;2023-03-23T15:11:41;95173.22;;;16.81;45.30
24160;BME280;62385;41.594;23.808;2023-03-23T15:14:17;95170.59;;;17.06;45.15
24160;BME280;62385;41.594;23.808;2023-03-23T15:16:51;95174.38;;;16.92;45.10
24160;BME280;62385;41.594;23.808;2023-03-23T15:19:35;95178.88;;;16.67;45.88
24160;BME280;62385;41.594;23.808;2023-03-23T15:22:25;95180.34;;;16.63;46.07
24160;BME280;62385;41.594;23.808;2023-03-23T15:24:54;95181.66;;;16.85;45.84
24160;BME280;62385;41.594;23.808;2023-03-23T15:27:29;95176.47;;;16.52;46.02
24160;BME280;62385;41.594;23.808;2023-03-23T15:30:37;95191.13;;;16.49;46.36